»·PEaware :: N6788B KSGU-KLAS

N6788B :: KSGU-KLAS

FLIGHT INFORMATION

Flight Status: Arrived
Operator: Privately registered:
United States
More flights under this callsign
Pilot: Brian S. (2237)
Aircraft: BEECH AIRCRAFT BARON
(BE58)
More flights by this aircraft type
Origin: KSGU St George Mun
United States
Destination: KLAS McCarran Intl
United States
More flights between these airports :: More routes between these airports
Route: +MMM V21 LAPIN V562 LAS
File this flight plan on PilotEdge
Remarks:
Altitude:
(Current/Filed)
11,000ft
Speed:
(Current/Filed)
160kts
Departed: 29-Sep-18 02:53 PM
Arrived: 29-Sep-18 03:38 PM
Distance/Time
Traveled:
96nm/0:45
Distance/Time
To Go:
Arrived

Flight Plot

Page will automatically refresh every two minutes.


Map Options




Map Legend


Flown Route
Filed Route
Departure Airport
Arrival Airport
Navaid (VOR, NDB)
Fix

Horizontal Profiles

Position Reports

Time Latitude Longitude Heading Altitude Ground
Speed
29-Sep-18 14:41 37.036969 -113.507123 113 2853ft 0kts
29-Sep-18 14:42 37.036969 -113.507123 113 2853ft 0kts
29-Sep-18 14:43 37.036969 -113.507123 113 2853ft 0kts
29-Sep-18 14:44 37.036969 -113.507123 113 2853ft 0kts
29-Sep-18 14:45 37.036969 -113.507123 113 2853ft 0kts
29-Sep-18 14:46 37.036969 -113.507123 113 2853ft 0kts
29-Sep-18 14:47 37.036969 -113.507123 113 2853ft 0kts
29-Sep-18 14:48 37.036969 -113.507123 113 2853ft 0kts
29-Sep-18 14:49 37.035327 -113.508611 199 2853ft 11kts
29-Sep-18 14:50 37.031295 -113.511529 290 2853ft 17kts
29-Sep-18 14:51 37.031406 -113.511824 304 2853ft 0kts
29-Sep-18 14:52 37.031406 -113.511824 304 2853ft 0kts
29-Sep-18 14:53 37.031406 -113.511824 304 2853ft 0kts
29-Sep-18 14:54 37.031985 -113.512493 7 2853ft 19kts
29-Sep-18 14:55 37.062210 -113.497884 19 2937ft 187kts
29-Sep-18 14:56 37.106045 -113.490782 312 4489ft 148kts
29-Sep-18 14:57 37.108611 -113.531336 249 5875ft 121kts
29-Sep-18 14:58 37.101345 -113.571731 247 7223ft 115kts
29-Sep-18 14:59 37.094850 -113.609111 240 8214ft 108kts
29-Sep-18 15:00 37.083050 -113.642476 237 9177ft 98kts
29-Sep-18 15:01 37.071514 -113.675278 236 9951ft 102kts
29-Sep-18 15:02 37.060035 -113.708060 236 10724ft 101kts
29-Sep-18 15:03 37.047763 -113.742791 237 11070ft 126kts
29-Sep-18 15:04 37.031276 -113.785631 237 11073ft 143kts
29-Sep-18 15:05 37.010501 -113.836211 237 10114ft 172kts
29-Sep-18 15:06 36.982239 -113.878328 229 10057ft 153kts
29-Sep-18 15:07 36.958758 -113.921978 231 10058ft 150kts
29-Sep-18 15:08 36.935692 -113.965418 231 10056ft 149kts
29-Sep-18 15:09 36.912705 -114.008591 231 10052ft 149kts
29-Sep-18 15:10 36.890280 -114.050695 231 10091ft 148kts
29-Sep-18 15:11 36.867145 -114.094083 231 10093ft 150kts
29-Sep-18 15:12 36.843880 -114.137618 231 10090ft 151kts
29-Sep-18 15:13 36.820626 -114.181114 231 10087ft 151kts
29-Sep-18 15:14 36.796983 -114.225237 231 10084ft 158kts
29-Sep-18 15:15 36.771834 -114.272140 232 10073ft 164kts
29-Sep-18 15:16 36.735052 -114.303524 209 10069ft 162kts
29-Sep-18 15:17 36.696443 -114.332932 210 10055ft 162kts
29-Sep-18 15:18 36.657927 -114.362334 210 10037ft 162kts
29-Sep-18 15:19 36.619462 -114.391691 210 10020ft 162kts
29-Sep-18 15:20 36.580879 -114.421136 210 10007ft 162kts
29-Sep-18 15:21 36.542272 -114.450550 210 9993ft 162kts
29-Sep-18 15:22 36.503803 -114.479827 210 9981ft 162kts
29-Sep-18 15:23 36.465242 -114.509126 210 9979ft 162kts
29-Sep-18 15:24 36.433144 -114.533501 210 9982ft 162kts
29-Sep-18 15:25 36.388149 -114.567643 210 9946ft 163kts
29-Sep-18 15:26 36.349621 -114.596826 210 9939ft 162kts
29-Sep-18 15:27 36.311291 -114.625827 210 9966ft 160kts
29-Sep-18 15:28 36.273431 -114.654424 209 9996ft 160kts
29-Sep-18 15:29 36.241797 -114.678306 209 10017ft 161kts
29-Sep-18 15:30 36.197107 -114.712017 209 10012ft 161kts
29-Sep-18 15:31 36.165269 -114.735996 209 9920ft 167kts
29-Sep-18 15:32 36.124509 -114.787996 256 8102ft 212kts
29-Sep-18 15:33 36.102558 -114.833911 201 6435ft 194kts
29-Sep-18 15:34 36.057066 -114.858352 237 4904ft 169kts
29-Sep-18 15:35 36.067546 -114.908931 290 4936ft 147kts
29-Sep-18 15:36 36.078772 -114.958327 256 4040ft 158kts
29-Sep-18 15:37 36.075718 -115.012495 263 3442ft 160kts
29-Sep-18 15:38 36.074123 -115.067143 266 2847ft 165kts
29-Sep-18 15:39 36.073653 -115.110003 264 2457ft 105kts
29-Sep-18 15:40 36.073674 -115.137444 276 2112ft 31kts
29-Sep-18 15:41 36.074619 -115.145652 296 2112ft 10kts

Navigation Log

Ident Type
Flight plan parsing failed, navigation log unavailable